Costa Victoria — IBLC — position and weather

sailwx.info

Track history (hours):
 
Tides and Currents Weather Stations Pressure Air Temp Water Temp Dewpoint Dewpoint Depression Visibility Wind Speed Wind Dir Waves Ship Positions

Costa Victoria

Last reported at 2019-Aug-22 19:09 UTC. Time now 2019-Aug-24 06:43 UTC.
Position N 37°17' E 023°37'.

Length 252 m; draft 8.1 m.

Type: Passenger vessel. MMSI: 247109000.

Date/timePositionNaut miles runAvg speedWind from/ knotsBaromVisibWave heightAir tempDewpointWater temp
2019-Aug-22 19:09N 37°17' E 023°37'216.0
2019-Aug-22 19:00N 37°19' E 023°39'815.7
2019-Aug-22 18:30N 37°27' E 023°41'816.1
2019-Aug-22 18:00N 37°35' E 023°42'815.8
2019-Aug-22 17:30N 37°43' E 023°41'816.0
2019-Aug-22 17:00N 37°50' E 023°37'612.1
2019-Aug-22 16:30N 37°56' E 023°37'1 1.2
2019-Aug-22 15:57N 37°56' E 023°38'0 0.0
2019-Aug-22 15:30N 37°56' E 023°38'0 0.0
2019-Aug-22 15:00N 37°56' E 023°38'0 0.0
2019-Aug-22 14:27N 37°56' E 023°38'0 0.0
2019-Aug-22 13:57N 37°56' E 023°38'0 0.0
2019-Aug-22 13:30N 37°56' E 023°38'0 0.0
2019-Aug-22 13:00N 37°56' E 023°38'0 0.0
2019-Aug-22 12:30N 37°56' E 023°38'0 0.0
2019-Aug-22 12:00N 37°56' E 023°38'0 0.0
2019-Aug-22 11:24N 37°56' E 023°38'0 0.0
2019-Aug-22 11:00N 37°56' E 023°38'0 0.0
2019-Aug-22 10:30N 37°56' E 023°38'0 0.0
2019-Aug-22 10:00N 37°56' E 023°38'0 0.0
2019-Aug-22 09:30N 37°56' E 023°38'0 0.0
2019-Aug-22 09:00N 37°56' E 023°38'0 0.0
2019-Aug-22 08:24N 37°56' E 023°38'0 0.0
2019-Aug-22 08:00N 37°56' E 023°38'0 0.0
2019-Aug-22 07:30N 37°56' E 023°38'0 0.0
2019-Aug-22 07:00N 37°56' E 023°38'0 0.0
2019-Aug-22 06:30N 37°56' E 023°38'0 0.0
2019-Aug-22 06:00N 37°56' E 023°38'0 0.0
2019-Aug-22 05:27N 37°56' E 023°38'0 0.2
2019-Aug-22 05:00N 37°56' E 023°38'2 4.1
2019-Aug-22 04:31N 37°55' E 023°37'0 0.4
2019-Aug-22 04:01N 37°54' E 023°36'0 0.4
2019-Aug-22 03:31N 37°55' E 023°36'0 0.4
2019-Aug-22 03:00N 37°55' E 023°36'3 6.6
2019-Aug-22 02:31N 37°52' E 023°38'714.0
2019-Aug-22 02:01N 37°46' E 023°42'612.8
2019-Aug-22 01:30N 37°40' E 023°45'5 9.9
2019-Aug-22 01:00N 37°35' E 023°45'510.1
2019-Aug-22 00:30N 37°30' E 023°45'611.5
2019-Aug-22 00:00N 37°24' E 023°45'611.5
2019-Aug-21 23:30N 37°18' E 023°45'611.4
2019-Aug-21 23:00N 37°13' E 023°45'5211.6
2019-Aug-21 18:31N 37°12' E 024°50'016.5
2019-Aug-21 18:30N 37°12' E 024°50'816.7
2019-Aug-21 18:00N 37°16' E 024°59'816.2
2019-Aug-21 17:30N 37°21' E 025°07'815.8
2019-Aug-21 17:00N 37°28' E 025°12'611.6
2019-Aug-21 16:30N 37°28' E 025°19'0 0.1
2019-Aug-21 15:45N 37°28' E 025°19'0 0.0
2019-Aug-21 15:27N 37°28' E 025°19'0 0.0
2019-Aug-21 14:57N 37°28' E 025°19'0 0.0
2019-Aug-21 14:27N 37°28' E 025°19'0 0.0
2019-Aug-21 13:57N 37°28' E 025°19'0 0.0
2019-Aug-21 13:21N 37°28' E 025°19'0 0.0
2019-Aug-21 12:57N 37°28' E 025°19'0 0.0
2019-Aug-21 12:27N 37°28' E 025°19'0 0.0
2019-Aug-21 11:57N 37°28' E 025°19'0 0.0
2019-Aug-21 11:27N 37°28' E 025°19'0 0.0
2019-Aug-21 10:57N 37°28' E 025°19'0 0.0
2019-Aug-21 10:27N 37°28' E 025°19'0 0.0
2019-Aug-21 09:57N 37°28' E 025°19'0 0.0
2019-Aug-21 09:27N 37°28' E 025°19'0 0.0
2019-Aug-21 08:57N 37°28' E 025°19'0 0.0
2019-Aug-21 08:27N 37°28' E 025°19'0 0.0
2019-Aug-21 07:57N 37°28' E 025°19'0 0.0
2019-Aug-21 07:27N 37°28' E 025°19'0 0.0
2019-Aug-21 06:57N 37°28' E 025°19'0 0.0
2019-Aug-21 06:27N 37°28' E 025°19'0 0.0
2019-Aug-21 05:57N 37°28' E 025°19'0 0.0
2019-Aug-21 05:27N 37°28' E 025°19'0 0.0
2019-Aug-21 04:57N 37°28' E 025°19'0 0.0
2019-Aug-21 04:27N 37°28' E 025°19'0 0.0
2019-Aug-21 03:57N 37°28' E 025°19'0 0.0
2019-Aug-21 03:27N 37°28' E 025°19'0 0.0
2019-Aug-21 02:51N 37°28' E 025°19'0 0.0
2019-Aug-21 02:27N 37°28' E 025°19'0 0.0
2019-Aug-21 01:57N 37°28' E 025°19'0 0.0
2019-Aug-21 01:27N 37°28' E 025°19'0 0.0
2019-Aug-21 00:57N 37°28' E 025°19'0 0.0
2019-Aug-21 00:27N 37°28' E 025°19'0 0.0
2019-Aug-20 23:57N 37°28' E 025°19'0 0.0
2019-Aug-20 23:21N 37°28' E 025°19'0 0.0
2019-Aug-20 22:57N 37°28' E 025°19'0 0.0
2019-Aug-20 22:27N 37°28' E 025°19'0 0.0
2019-Aug-20 21:57N 37°28' E 025°19'0 0.0
2019-Aug-20 21:27N 37°28' E 025°19'0 0.0
2019-Aug-20 20:51N 37°28' E 025°19'0 0.0
2019-Aug-20 20:27N 37°28' E 025°19'0 0.0
2019-Aug-20 19:57N 37°28' E 025°19'0 0.0
2019-Aug-20 19:27N 37°28' E 025°19'0 0.0
2019-Aug-20 18:57N 37°28' E 025°19'0 0.0
2019-Aug-20 18:27N 37°28' E 025°19'0 0.0
2019-Aug-20 17:57N 37°28' E 025°19'0 0.0
2019-Aug-20 17:27N 37°28' E 025°19'0 0.0
2019-Aug-20 16:57N 37°28' E 025°19'0 0.0
2019-Aug-20 16:27N 37°28' E 025°19'0 0.0
2019-Aug-20 15:57N 37°28' E 025°19'0 0.0
2019-Aug-20 15:21N 37°28' E 025°19'0 0.0
2019-Aug-20 14:51N 37°28' E 025°19'0 0.0
2019-Aug-20 14:27N 37°28' E 025°19'0 0.0
2019-Aug-20 13:51N 37°28' E 025°19'0 0.0
2019-Aug-20 13:27N 37°28' E 025°19'0 0.0
2019-Aug-20 12:57N 37°28' E 025°19'0 0.0
2019-Aug-20 12:27N 37°28' E 025°19'0 0.0
2019-Aug-20 11:57N 37°28' E 025°19'0 0.0
2019-Aug-20 11:27N 37°28' E 025°19'0 0.0
2019-Aug-20 10:57N 37°28' E 025°19'0 0.0
2019-Aug-20 10:27N 37°28' E 025°19'0 0.0
2019-Aug-20 09:57N 37°28' E 025°19'0 0.0
2019-Aug-20 09:27N 37°28' E 025°19'0 0.0
2019-Aug-20 08:57N 37°28' E 025°19'0 0.0
2019-Aug-20 08:27N 37°28' E 025°19'0 0.0
2019-Aug-20 07:57N 37°28' E 025°19'0 0.0
2019-Aug-20 07:27N 37°28' E 025°19'0 0.0
2019-Aug-20 06:57N 37°28' E 025°19'0 0.0
2019-Aug-20 06:27N 37°28' E 025°19'0 0.0
2019-Aug-20 05:57N 37°28' E 025°19'0 0.0
2019-Aug-20 05:27N 37°28' E 025°19'0 0.0
2019-Aug-20 04:57N 37°28' E 025°19'0 0.0
2019-Aug-20 04:27N 37°28' E 025°19'0 0.0
2019-Aug-20 04:01N 37°28' E 025°19'0 0.1
2019-Aug-20 03:31N 37°28' E 025°19'3 6.2
2019-Aug-20 03:00N 37°28' E 025°15'510.9
2019-Aug-20 02:31N 37°27' E 025°09'713.5
2019-Aug-20 02:00N 37°20' E 025°06'714.7
2019-Aug-20 01:30N 37°15' E 024°59'815.4
2019-Aug-20 01:00N 37°12' E 024°50'  
2019-Aug-15 13:54N 37°17' E 023°37'615.8
2019-Aug-15 13:30N 37°23' E 023°40'816.0
2019-Aug-15 13:00N 37°30' E 023°41'816.4
2019-Aug-15 12:30N 37°39' E 023°42'816.7
2019-Aug-15 12:00N 37°46' E 023°39'815.7
2019-Aug-15 11:30N 37°54' E 023°37'2 4.3
2019-Aug-15 11:00N 37°56' E 023°37'0 0.0
2019-Aug-15 10:28N 37°56' E 023°37'0 0.0
2019-Aug-15 09:58N 37°56' E 023°37'0 0.0
2019-Aug-15 09:22N 37°56' E 023°37'0 0.0
2019-Aug-15 08:58N 37°56' E 023°37'0 0.0
2019-Aug-15 08:28N 37°56' E 023°37'0 0.0
2019-Aug-15 07:58N 37°56' E 023°37'0 0.0
2019-Aug-15 07:25N 37°56' E 023°37'0 0.0
2019-Aug-15 06:58N 37°56' E 023°37'0 0.0
2019-Aug-15 06:28N 37°56' E 023°37'0 0.0
2019-Aug-15 05:58N 37°56' E 023°37'0 0.0
2019-Aug-15 05:28N 37°56' E 023°37'0 0.0
2019-Aug-15 04:55N 37°56' E 023°37'0 0.0
2019-Aug-15 04:28N 37°56' E 023°37'0 0.0
2019-Aug-15 03:58N 37°56' E 023°37'0 0.0
2019-Aug-15 03:30N 37°56' E 023°37'1 2.4
2019-Aug-15 03:01N 37°55' E 023°36'3 6.0
2019-Aug-15 02:31N 37°53' E 023°38'713.6
2019-Aug-15 02:00N 37°47' E 023°42'714.7
2019-Aug-15 01:30N 37°40' E 023°46'612.1
2019-Aug-15 01:00N 37°34' E 023°45'611.5
2019-Aug-15 00:30N 37°28' E 023°44'611.6
2019-Aug-15 00:00N 37°22' E 023°45'611.7
2019-Aug-14 23:30N 37°16' E 023°45'611.7
2019-Aug-14 23:00N 37°11' E 023°45'7 9.8
2019-Aug-14 22:17N 37°04' E 023°49'311.6
2019-Aug-14 22:00N 37°04' E 023°53'611.6
2019-Aug-14 21:30N 37°03' E 024°00'712.1
2019-Aug-14 20:54N 37°02' E 024°09'612.5
2019-Aug-14 20:25N 37°03' E 024°17'2815.8
2019-Aug-14 18:39N 37°12' E 024°50'215.8
2019-Aug-14 18:31N 37°13' E 024°52'816.1
2019-Aug-14 18:01N 37°17' E 025°01'815.6
2019-Aug-14 17:30N 37°23' E 025°07'714.1
2019-Aug-14 17:00N 37°28' E 025°14'4 8.8
2019-Aug-14 16:30N 37°27' E 025°19'0 0.7
2019-Aug-14 15:59N 37°28' E 025°20'0 0.1
2019-Aug-14 15:26N 37°28' E 025°20'0 0.0
2019-Aug-14 14:56N 37°28' E 025°20'0 0.0
2019-Aug-14 14:23N 37°28' E 025°20'0 0.0
2019-Aug-14 13:59N 37°28' E 025°20'0 0.0
2019-Aug-14 13:23N 37°28' E 025°20'0 0.0
2019-Aug-14 12:53N 37°28' E 025°20'0 0.0
2019-Aug-14 12:08N 37°28' E 025°20'0 0.0
2019-Aug-14 11:59N 37°28' E 025°20'0 0.0
2019-Aug-14 11:29N 37°28' E 025°20'0 0.0
2019-Aug-14 10:53N 37°28' E 025°20'0 0.0
2019-Aug-14 10:29N 37°28' E 025°20'0 0.0
2019-Aug-14 09:56N 37°28' E 025°20'0 0.0
2019-Aug-14 09:23N 37°28' E 025°20'0 0.0
2019-Aug-14 08:56N 37°28' E 025°20'0 0.0
2019-Aug-14 08:23N 37°28' E 025°20'0 0.0
2019-Aug-14 07:59N 37°28' E 025°20'0 0.0
2019-Aug-14 07:26N 37°28' E 025°20'0 0.0
2019-Aug-14 06:56N 37°28' E 025°20'0 0.0
2019-Aug-14 06:29N 37°28' E 025°20'0 0.0
2019-Aug-14 05:50N 37°28' E 025°20'0 0.0
2019-Aug-14 05:29N 37°28' E 025°20'0 0.0
2019-Aug-14 04:59N 37°28' E 025°20'0 0.0
2019-Aug-14 04:23N 37°28' E 025°20'0 0.0
2019-Aug-14 03:56N 37°28' E 025°20'0 0.0
2019-Aug-14 03:29N 37°28' E 025°20'0 0.0
2019-Aug-14 02:53N 37°28' E 025°20'0 0.0
2019-Aug-14 02:26N 37°28' E 025°20'0 0.0
2019-Aug-14 01:59N 37°28' E 025°20'0 0.0
2019-Aug-14 01:29N 37°28' E 025°20'0 0.0
2019-Aug-14 00:59N 37°28' E 025°20'0 0.0
2019-Aug-14 00:29N 37°28' E 025°20'0 0.0
2019-Aug-13 23:59N 37°28' E 025°20'0 0.0
2019-Aug-13 23:26N 37°28' E 025°20'0 0.0
2019-Aug-13 22:59N 37°28' E 025°20'0 0.0
2019-Aug-13 22:29N 37°28' E 025°20'0 0.0
2019-Aug-13 21:53N 37°28' E 025°20'0 0.0
2019-Aug-13 21:20N 37°28' E 025°20'0 0.0
2019-Aug-13 20:56N 37°28' E 025°20'0 0.0
2019-Aug-13 20:29N 37°28' E 025°20'0 0.0
2019-Aug-13 19:59N 37°28' E 025°20'0 0.0
2019-Aug-13 19:29N 37°28' E 025°20'0 0.0
2019-Aug-13 18:59N 37°28' E 025°20'0 0.0
2019-Aug-13 18:20N 37°28' E 025°20'0 0.0
2019-Aug-13 17:59N 37°28' E 025°20'0 0.0
2019-Aug-13 17:23N 37°28' E 025°20'0 0.0
2019-Aug-13 16:59N 37°28' E 025°20'0 0.0
2019-Aug-13 16:29N 37°28' E 025°20'0 0.0
2019-Aug-13 15:59N 37°28' E 025°20'0 0.0
2019-Aug-13 15:26N 37°28' E 025°20'0 0.0
2019-Aug-13 14:53N 37°28' E 025°20'0 0.0
2019-Aug-13 14:29N 37°28' E 025°20'0 0.0
2019-Aug-13 13:59N 37°28' E 025°20'0 0.0
2019-Aug-13 13:29N 37°28' E 025°20'0 0.0
2019-Aug-13 12:59N 37°28' E 025°20'0 0.0
2019-Aug-13 12:29N 37°28' E 025°20'0 0.0
2019-Aug-13 11:56N 37°28' E 025°20'0 0.0
2019-Aug-13 11:29N 37°28' E 025°20'0 0.0
2019-Aug-13 10:59N 37°28' E 025°20'0 0.0
2019-Aug-13 10:29N 37°28' E 025°20'0 0.0
2019-Aug-13 09:56N 37°28' E 025°20'0 0.0
2019-Aug-13 09:29N 37°28' E 025°20'0 0.0
2019-Aug-13 08:56N 37°28' E 025°20'0 0.0
2019-Aug-13 08:17N 37°28' E 025°20'0 0.0
2019-Aug-13 07:59N 37°28' E 025°20'0 0.0
2019-Aug-13 07:29N 37°28' E 025°20'0 0.0
2019-Aug-13 06:56N 37°28' E 025°20'0 0.0
2019-Aug-13 06:26N 37°28' E 025°20'0 0.0
2019-Aug-13 05:59N 37°28' E 025°20'0 0.0
2019-Aug-13 05:26N 37°28' E 025°20'0 0.0
2019-Aug-13 04:59N 37°28' E 025°20'0 0.0
2019-Aug-13 04:29N 37°28' E 025°19'0 0.0
2019-Aug-13 04:00N 37°28' E 025°19'0 0.2
2019-Aug-13 03:30N 37°28' E 025°19'4 7.8
2019-Aug-13 03:00N 37°28' E 025°14'510.8
2019-Aug-13 02:31N 37°26' E 025°08'1414.4
2019-Aug-13 01:31N 37°15' E 024°57'4615.5
2019-Aug-12 22:34N 36°53' E 024°07'  
Track history (hours):
 
Tides and Currents Weather Stations Pressure Air Temp Water Temp Dewpoint Dewpoint Depression Visibility Wind Speed Wind Dir Waves Ship Positions

Costa Victoria

Last reported at 2019-Aug-22 19:09 UTC. Time now 2019-Aug-24 06:43 UTC.
Position N 37°17' E 023°37'.

Length 252 m; draft 8.1 m.

Type: Passenger vessel. MMSI: 247109000.

Date/timePositionNaut miles runAvg speedWind from/ knotsBaromVisibWave heightAir tempDewpointWater temp
2019-Aug-22 19:09N 37°17' E 023°37'216.0
2019-Aug-22 19:00N 37°19' E 023°39'815.7
2019-Aug-22 18:30N 37°27' E 023°41'816.1
2019-Aug-22 18:00N 37°35' E 023°42'815.8
2019-Aug-22 17:30N 37°43' E 023°41'816.0
2019-Aug-22 17:00N 37°50' E 023°37'612.1
2019-Aug-22 16:30N 37°56' E 023°37'1 1.2
2019-Aug-22 15:57N 37°56' E 023°38'0 0.0
2019-Aug-22 15:30N 37°56' E 023°38'0 0.0
2019-Aug-22 15:00N 37°56' E 023°38'0 0.0
2019-Aug-22 14:27N 37°56' E 023°38'0 0.0
2019-Aug-22 13:57N 37°56' E 023°38'0 0.0
2019-Aug-22 13:30N 37°56' E 023°38'0 0.0
2019-Aug-22 13:00N 37°56' E 023°38'0 0.0
2019-Aug-22 12:30N 37°56' E 023°38'0 0.0
2019-Aug-22 12:00N 37°56' E 023°38'0 0.0
2019-Aug-22 11:24N 37°56' E 023°38'0 0.0
2019-Aug-22 11:00N 37°56' E 023°38'0 0.0
2019-Aug-22 10:30N 37°56' E 023°38'0 0.0
2019-Aug-22 10:00N 37°56' E 023°38'0 0.0
2019-Aug-22 09:30N 37°56' E 023°38'0 0.0
2019-Aug-22 09:00N 37°56' E 023°38'0 0.0
2019-Aug-22 08:24N 37°56' E 023°38'0 0.0
2019-Aug-22 08:00N 37°56' E 023°38'0 0.0
2019-Aug-22 07:30N 37°56' E 023°38'0 0.0
2019-Aug-22 07:00N 37°56' E 023°38'0 0.0
2019-Aug-22 06:30N 37°56' E 023°38'0 0.0
2019-Aug-22 06:00N 37°56' E 023°38'0 0.0
2019-Aug-22 05:27N 37°56' E 023°38'0 0.2
2019-Aug-22 05:00N 37°56' E 023°38'2 4.1
2019-Aug-22 04:31N 37°55' E 023°37'0 0.4
2019-Aug-22 04:01N 37°54' E 023°36'0 0.4
2019-Aug-22 03:31N 37°55' E 023°36'0 0.4
2019-Aug-22 03:00N 37°55' E 023°36'3 6.6
2019-Aug-22 02:31N 37°52' E 023°38'714.0
2019-Aug-22 02:01N 37°46' E 023°42'612.8
2019-Aug-22 01:30N 37°40' E 023°45'5 9.9
2019-Aug-22 01:00N 37°35' E 023°45'510.1
2019-Aug-22 00:30N 37°30' E 023°45'611.5
2019-Aug-22 00:00N 37°24' E 023°45'611.5
2019-Aug-21 23:30N 37°18' E 023°45'611.4
2019-Aug-21 23:00N 37°13' E 023°45'5211.6
2019-Aug-21 18:31N 37°12' E 024°50'016.5
2019-Aug-21 18:30N 37°12' E 024°50'816.7
2019-Aug-21 18:00N 37°16' E 024°59'816.2
2019-Aug-21 17:30N 37°21' E 025°07'815.8
2019-Aug-21 17:00N 37°28' E 025°12'611.6
2019-Aug-21 16:30N 37°28' E 025°19'0 0.1
2019-Aug-21 15:45N 37°28' E 025°19'0 0.0
2019-Aug-21 15:27N 37°28' E 025°19'0 0.0
2019-Aug-21 14:57N 37°28' E 025°19'0 0.0
2019-Aug-21 14:27N 37°28' E 025°19'0 0.0
2019-Aug-21 13:57N 37°28' E 025°19'0 0.0
2019-Aug-21 13:21N 37°28' E 025°19'0 0.0
2019-Aug-21 12:57N 37°28' E 025°19'0 0.0
2019-Aug-21 12:27N 37°28' E 025°19'0 0.0
2019-Aug-21 11:57N 37°28' E 025°19'0 0.0
2019-Aug-21 11:27N 37°28' E 025°19'0 0.0
2019-Aug-21 10:57N 37°28' E 025°19'0 0.0
2019-Aug-21 10:27N 37°28' E 025°19'0 0.0
2019-Aug-21 09:57N 37°28' E 025°19'0 0.0
2019-Aug-21 09:27N 37°28' E 025°19'0 0.0
2019-Aug-21 08:57N 37°28' E 025°19'0 0.0
2019-Aug-21 08:27N 37°28' E 025°19'0 0.0
2019-Aug-21 07:57N 37°28' E 025°19'0 0.0
2019-Aug-21 07:27N 37°28' E 025°19'0 0.0
2019-Aug-21 06:57N 37°28' E 025°19'0 0.0
2019-Aug-21 06:27N 37°28' E 025°19'0 0.0
2019-Aug-21 05:57N 37°28' E 025°19'0 0.0
2019-Aug-21 05:27N 37°28' E 025°19'0 0.0
2019-Aug-21 04:57N 37°28' E 025°19'0 0.0
2019-Aug-21 04:27N 37°28' E 025°19'0 0.0
2019-Aug-21 03:57N 37°28' E 025°19'0 0.0
2019-Aug-21 03:27N 37°28' E 025°19'0 0.0
2019-Aug-21 02:51N 37°28' E 025°19'0 0.0
2019-Aug-21 02:27N 37°28' E 025°19'0 0.0
2019-Aug-21 01:57N 37°28' E 025°19'0 0.0
2019-Aug-21 01:27N 37°28' E 025°19'0 0.0
2019-Aug-21 00:57N 37°28' E 025°19'0 0.0
2019-Aug-21 00:27N 37°28' E 025°19'0 0.0
2019-Aug-20 23:57N 37°28' E 025°19'0 0.0
2019-Aug-20 23:21N 37°28' E 025°19'0 0.0
2019-Aug-20 22:57N 37°28' E 025°19'0 0.0
2019-Aug-20 22:27N 37°28' E 025°19'0 0.0
2019-Aug-20 21:57N 37°28' E 025°19'0 0.0
2019-Aug-20 21:27N 37°28' E 025°19'0 0.0
2019-Aug-20 20:51N 37°28' E 025°19'0 0.0
2019-Aug-20 20:27N 37°28' E 025°19'0 0.0
2019-Aug-20 19:57N 37°28' E 025°19'0 0.0
2019-Aug-20 19:27N 37°28' E 025°19'0 0.0
2019-Aug-20 18:57N 37°28' E 025°19'0 0.0
2019-Aug-20 18:27N 37°28' E 025°19'0 0.0
2019-Aug-20 17:57N 37°28' E 025°19'0 0.0
2019-Aug-20 17:27N 37°28' E 025°19'0 0.0
2019-Aug-20 16:57N 37°28' E 025°19'0 0.0
2019-Aug-20 16:27N 37°28' E 025°19'0 0.0
2019-Aug-20 15:57N 37°28' E 025°19'0 0.0
2019-Aug-20 15:21N 37°28' E 025°19'0 0.0
2019-Aug-20 14:51N 37°28' E 025°19'0 0.0
2019-Aug-20 14:27N 37°28' E 025°19'0 0.0
2019-Aug-20 13:51N 37°28' E 025°19'0 0.0
2019-Aug-20 13:27N 37°28' E 025°19'0 0.0
2019-Aug-20 12:57N 37°28' E 025°19'0 0.0
2019-Aug-20 12:27N 37°28' E 025°19'0 0.0
2019-Aug-20 11:57N 37°28' E 025°19'0 0.0
2019-Aug-20 11:27N 37°28' E 025°19'0 0.0
2019-Aug-20 10:57N 37°28' E 025°19'0 0.0
2019-Aug-20 10:27N 37°28' E 025°19'0 0.0
2019-Aug-20 09:57N 37°28' E 025°19'0 0.0
2019-Aug-20 09:27N 37°28' E 025°19'0 0.0
2019-Aug-20 08:57N 37°28' E 025°19'0 0.0
2019-Aug-20 08:27N 37°28' E 025°19'0 0.0
2019-Aug-20 07:57N 37°28' E 025°19'0 0.0
2019-Aug-20 07:27N 37°28' E 025°19'0 0.0
2019-Aug-20 06:57N 37°28' E 025°19'0 0.0
2019-Aug-20 06:27N 37°28' E 025°19'0 0.0
2019-Aug-20 05:57N 37°28' E 025°19'0 0.0
2019-Aug-20 05:27N 37°28' E 025°19'0 0.0
2019-Aug-20 04:57N 37°28' E 025°19'0 0.0
2019-Aug-20 04:27N 37°28' E 025°19'0 0.0
2019-Aug-20 04:01N 37°28' E 025°19'0 0.1
2019-Aug-20 03:31N 37°28' E 025°19'3 6.2
2019-Aug-20 03:00N 37°28' E 025°15'510.9
2019-Aug-20 02:31N 37°27' E 025°09'713.5
2019-Aug-20 02:00N 37°20' E 025°06'714.7
2019-Aug-20 01:30N 37°15' E 024°59'815.4
2019-Aug-20 01:00N 37°12' E 024°50'  
2019-Aug-15 13:54N 37°17' E 023°37'615.8
2019-Aug-15 13:30N 37°23' E 023°40'816.0
2019-Aug-15 13:00N 37°30' E 023°41'816.4
2019-Aug-15 12:30N 37°39' E 023°42'816.7
2019-Aug-15 12:00N 37°46' E 023°39'815.7
2019-Aug-15 11:30N 37°54' E 023°37'2 4.3
2019-Aug-15 11:00N 37°56' E 023°37'0 0.0
2019-Aug-15 10:28N 37°56' E 023°37'0 0.0
2019-Aug-15 09:58N 37°56' E 023°37'0 0.0
2019-Aug-15 09:22N 37°56' E 023°37'0 0.0
2019-Aug-15 08:58N 37°56' E 023°37'0 0.0
2019-Aug-15 08:28N 37°56' E 023°37'0 0.0
2019-Aug-15 07:58N 37°56' E 023°37'0 0.0
2019-Aug-15 07:25N 37°56' E 023°37'0 0.0
2019-Aug-15 06:58N 37°56' E 023°37'0 0.0
2019-Aug-15 06:28N 37°56' E 023°37'0 0.0
2019-Aug-15 05:58N 37°56' E 023°37'0 0.0
2019-Aug-15 05:28N 37°56' E 023°37'0 0.0
2019-Aug-15 04:55N 37°56' E 023°37'0 0.0
2019-Aug-15 04:28N 37°56' E 023°37'0 0.0
2019-Aug-15 03:58N 37°56' E 023°37'0 0.0
2019-Aug-15 03:30N 37°56' E 023°37'1 2.4
2019-Aug-15 03:01N 37°55' E 023°36'3 6.0
2019-Aug-15 02:31N 37°53' E 023°38'713.6
2019-Aug-15 02:00N 37°47' E 023°42'714.7
2019-Aug-15 01:30N 37°40' E 023°46'612.1
2019-Aug-15 01:00N 37°34' E 023°45'611.5
2019-Aug-15 00:30N 37°28' E 023°44'611.6
2019-Aug-15 00:00N 37°22' E 023°45'611.7
2019-Aug-14 23:30N 37°16' E 023°45'611.7
2019-Aug-14 23:00N 37°11' E 023°45'7 9.8
2019-Aug-14 22:17N 37°04' E 023°49'311.6
2019-Aug-14 22:00N 37°04' E 023°53'611.6
2019-Aug-14 21:30N 37°03' E 024°00'712.1
2019-Aug-14 20:54N 37°02' E 024°09'612.5
2019-Aug-14 20:25N 37°03' E 024°17'2815.8
2019-Aug-14 18:39N 37°12' E 024°50'215.8
2019-Aug-14 18:31N 37°13' E 024°52'816.1
2019-Aug-14 18:01N 37°17' E 025°01'815.6
2019-Aug-14 17:30N 37°23' E 025°07'714.1
2019-Aug-14 17:00N 37°28' E 025°14'4 8.8
2019-Aug-14 16:30N 37°27' E 025°19'0 0.7
2019-Aug-14 15:59N 37°28' E 025°20'0 0.1
2019-Aug-14 15:26N 37°28' E 025°20'0 0.0
2019-Aug-14 14:56N 37°28' E 025°20'0 0.0
2019-Aug-14 14:23N 37°28' E 025°20'0 0.0
2019-Aug-14 13:59N 37°28' E 025°20'0 0.0
2019-Aug-14 13:23N 37°28' E 025°20'0 0.0
2019-Aug-14 12:53N 37°28' E 025°20'0 0.0
2019-Aug-14 12:08N 37°28' E 025°20'0 0.0
2019-Aug-14 11:59N 37°28' E 025°20'0 0.0
2019-Aug-14 11:29N 37°28' E 025°20'0 0.0
2019-Aug-14 10:53N 37°28' E 025°20'0 0.0
2019-Aug-14 10:29N 37°28' E 025°20'0 0.0
2019-Aug-14 09:56N 37°28' E 025°20'0 0.0
2019-Aug-14 09:23N 37°28' E 025°20'0 0.0
2019-Aug-14 08:56N 37°28' E 025°20'0 0.0
2019-Aug-14 08:23N 37°28' E 025°20'0 0.0
2019-Aug-14 07:59N 37°28' E 025°20'0 0.0
2019-Aug-14 07:26N 37°28' E 025°20'0 0.0
2019-Aug-14 06:56N 37°28' E 025°20'0 0.0
2019-Aug-14 06:29N 37°28' E 025°20'0 0.0
2019-Aug-14 05:50N 37°28' E 025°20'0 0.0
2019-Aug-14 05:29N 37°28' E 025°20'0 0.0
2019-Aug-14 04:59N 37°28' E 025°20'0 0.0
2019-Aug-14 04:23N 37°28' E 025°20'0 0.0
2019-Aug-14 03:56N 37°28' E 025°20'0 0.0
2019-Aug-14 03:29N 37°28' E 025°20'0 0.0
2019-Aug-14 02:53N 37°28' E 025°20'0 0.0
2019-Aug-14 02:26N 37°28' E 025°20'0 0.0
2019-Aug-14 01:59N 37°28' E 025°20'0 0.0
2019-Aug-14 01:29N 37°28' E 025°20'0 0.0
2019-Aug-14 00:59N 37°28' E 025°20'0 0.0
2019-Aug-14 00:29N 37°28' E 025°20'0 0.0
2019-Aug-13 23:59N 37°28' E 025°20'0 0.0
2019-Aug-13 23:26N 37°28' E 025°20'0 0.0
2019-Aug-13 22:59N 37°28' E 025°20'0 0.0
2019-Aug-13 22:29N 37°28' E 025°20'0 0.0
2019-Aug-13 21:53N 37°28' E 025°20'0 0.0
2019-Aug-13 21:20N 37°28' E 025°20'0 0.0
2019-Aug-13 20:56N 37°28' E 025°20'0 0.0
2019-Aug-13 20:29N 37°28' E 025°20'0 0.0
2019-Aug-13 19:59N 37°28' E 025°20'0 0.0
2019-Aug-13 19:29N 37°28' E 025°20'0 0.0
2019-Aug-13 18:59N 37°28' E 025°20'0 0.0
2019-Aug-13 18:20N 37°28' E 025°20'0 0.0
2019-Aug-13 17:59N 37°28' E 025°20'0 0.0
2019-Aug-13 17:23N 37°28' E 025°20'0 0.0
2019-Aug-13 16:59N 37°28' E 025°20'0 0.0
2019-Aug-13 16:29N 37°28' E 025°20'0 0.0
2019-Aug-13 15:59N 37°28' E 025°20'0 0.0
2019-Aug-13 15:26N 37°28' E 025°20'0 0.0
2019-Aug-13 14:53N 37°28' E 025°20'0 0.0
2019-Aug-13 14:29N 37°28' E 025°20'0 0.0
2019-Aug-13 13:59N 37°28' E 025°20'0 0.0
2019-Aug-13 13:29N 37°28' E 025°20'0 0.0
2019-Aug-13 12:59N 37°28' E 025°20'0 0.0
2019-Aug-13 12:29N 37°28' E 025°20'0 0.0
2019-Aug-13 11:56N 37°28' E 025°20'0 0.0
2019-Aug-13 11:29N 37°28' E 025°20'0 0.0
2019-Aug-13 10:59N 37°28' E 025°20'0 0.0
2019-Aug-13 10:29N 37°28' E 025°20'0 0.0
2019-Aug-13 09:56N 37°28' E 025°20'0 0.0
2019-Aug-13 09:29N 37°28' E 025°20'0 0.0
2019-Aug-13 08:56N 37°28' E 025°20'0 0.0
2019-Aug-13 08:17N 37°28' E 025°20'0 0.0
2019-Aug-13 07:59N 37°28' E 025°20'0 0.0
2019-Aug-13 07:29N 37°28' E 025°20'0 0.0
2019-Aug-13 06:56N 37°28' E 025°20'0 0.0
2019-Aug-13 06:26N 37°28' E 025°20'0 0.0
2019-Aug-13 05:59N 37°28' E 025°20'0 0.0
2019-Aug-13 05:26N 37°28' E 025°20'0 0.0
2019-Aug-13 04:59N 37°28' E 025°20'0 0.0
2019-Aug-13 04:29N 37°28' E 025°19'0 0.0
2019-Aug-13 04:00N 37°28' E 025°19'0 0.2
2019-Aug-13 03:30N 37°28' E 025°19'4 7.8
2019-Aug-13 03:00N 37°28' E 025°14'510.8
2019-Aug-13 02:31N 37°26' E 025°08'1414.4
2019-Aug-13 01:31N 37°15' E 024°57'4615.5
2019-Aug-12 22:34N 36°53' E 024°07'  

Dump ship's entire track history